Siteam Voyager — 9VCN3 — position and weather

sailwx.info

Track history (hours):
 
Tides and Currents Weather Stations Pressure Air Temp Water Temp Dewpoint Dewpoint Depression Visibility Wind Speed Wind Dir Waves Ship Positions

Siteam Voyager

Last reported at 2014-Nov-10 12:34 UTC. Time now 2014-Nov-23 12:22 UTC.
Position N 25°02' W 117°22'.
Warning: this ship's position is 12 days out of date.

Length 183 m; draft 11.9 m.

Type: Ship (hazmat cat A). MMSI: 565812000.

Date/timePositionNaut miles runAvg speedWind from/ knotsBaromVisibWave heightAir tempDewpointWater temp
2014-Nov-10 12:34N 25°02' W 117°22'3012.2
2014-Nov-10 10:07N 25°19' W 117°49'1312.3
2014-Nov-10 09:05N 25°27' W 118°01'812.3
2014-Nov-10 08:26N 25°31' W 118°08'1112.3
2014-Nov-10 07:33N 25°37' W 118°18'1712.3
2014-Nov-10 06:12N 25°47' W 118°33'812.2
2014-Nov-10 05:33N 25°52' W 118°40'7412.3
2014-Nov-09 23:33N 26°33' W 119°49'1212.4
2014-Nov-09 22:33N 26°40' W 120°00'1212.4
2014-Nov-09 21:33N 26°47' W 120°12'1212.3
2014-Nov-09 20:33N 26°54' W 120°23'6411.9
2014-Nov-09 15:13N 27°29' W 121°23'812.0
2014-Nov-09 14:32N 27°33' W 121°30'10112.2
2014-Nov-09 06:12N 28°28' W 123°07'  
Track history (hours):
 
Tides and Currents Weather Stations Pressure Air Temp Water Temp Dewpoint Dewpoint Depression Visibility Wind Speed Wind Dir Waves Ship Positions

Siteam Voyager

Last reported at 2014-Nov-10 12:34 UTC. Time now 2014-Nov-23 12:22 UTC.
Position N 25°02' W 117°22'.
Warning: this ship's position is 12 days out of date.

Length 183 m; draft 11.9 m.

Type: Ship (hazmat cat A). MMSI: 565812000.

Date/timePositionNaut miles runAvg speedWind from/ knotsBaromVisibWave heightAir tempDewpointWater temp
2014-Nov-10 12:34N 25°02' W 117°22'3012.2
2014-Nov-10 10:07N 25°19' W 117°49'1312.3
2014-Nov-10 09:05N 25°27' W 118°01'812.3
2014-Nov-10 08:26N 25°31' W 118°08'1112.3
2014-Nov-10 07:33N 25°37' W 118°18'1712.3
2014-Nov-10 06:12N 25°47' W 118°33'812.2
2014-Nov-10 05:33N 25°52' W 118°40'7412.3
2014-Nov-09 23:33N 26°33' W 119°49'1212.4
2014-Nov-09 22:33N 26°40' W 120°00'1212.4
2014-Nov-09 21:33N 26°47' W 120°12'1212.3
2014-Nov-09 20:33N 26°54' W 120°23'6411.9
2014-Nov-09 15:13N 27°29' W 121°23'812.0
2014-Nov-09 14:32N 27°33' W 121°30'10112.2
2014-Nov-09 06:12N 28°28' W 123°07'  

Dump ship's entire track history